createdAt,value
2023-02-11T00:05:03.856Z,6.72
2023-02-11T00:10:09.537Z,8.30
2023-02-11T00:15:11.407Z,7.40
2023-02-11T00:20:12.869Z,6.03
2023-02-11T00:25:14.395Z,7.13
2023-02-11T00:30:16.542Z,7.32
2023-02-11T00:35:18.205Z,8.23
2023-02-11T00:40:19.794Z,9.75
2023-02-11T00:45:21.402Z,5.57
2023-02-11T00:50:23.455Z,4.88
2023-02-11T00:55:25.050Z,5.65
2023-02-11T01:00:27.483Z,6.05
2023-02-11T01:05:29.056Z,7.30
2023-02-11T01:10:30.725Z,6.95
2023-02-11T01:15:33.346Z,7.35
2023-02-11T01:20:34.960Z,7.13
2023-02-11T01:25:36.508Z,6.80
2023-02-11T01:30:37.930Z,7.65
2023-02-11T01:35:40.351Z,7.25
2023-02-11T01:40:47.680Z,7.95
2023-02-11T01:45:49.506Z,6.90
2023-02-11T01:50:57.085Z,6.78
2023-02-11T01:56:17.961Z,2.90
2023-02-11T02:01:24.382Z,7.78
2023-02-11T02:06:46.223Z,9.02
2023-02-11T02:11:47.800Z,7.25
2023-02-11T02:16:49.230Z,8.23
2023-02-11T02:21:57.968Z,8.02
2023-02-11T02:27:15.849Z,7.80
2023-02-11T02:32:47.570Z,8.00
2023-02-11T02:38:10.720Z,8.57
2023-02-11T02:43:13.790Z,6.88
2023-02-11T02:48:33.202Z,6.80
2023-02-11T02:54:00.621Z,8.13
2023-02-11T03:04:43.558Z,8.55
2023-02-11T03:09:59.592Z,8.15
2023-02-11T03:15:03.884Z,8.20
2023-02-11T03:20:09.776Z,8.80
2023-02-11T03:25:11.385Z,6.53
2023-02-11T03:30:26.727Z,9.48
2023-02-11T03:35:33.242Z,8.43
2023-02-11T03:40:40.047Z,8.20
2023-02-11T03:50:45.429Z,11.10
2023-02-11T03:55:49.278Z,9.48
2023-02-11T04:00:51.423Z,9.25
2023-02-11T04:05:53.054Z,9.45
2023-02-11T04:10:54.463Z,7.90
2023-02-11T04:15:55.962Z,9.00
2023-02-11T04:20:57.506Z,8.90
2023-02-11T04:25:59.106Z,9.73
2023-02-11T04:31:00.781Z,3.63
2023-02-11T04:36:02.291Z,10.05
2023-02-11T04:41:03.853Z,4.10
2023-02-11T04:46:05.490Z,9.70
2023-02-11T04:51:06.940Z,11.10
2023-02-11T04:56:08.461Z,9.85
2023-02-11T05:01:12.675Z,9.82
2023-02-11T05:06:14.410Z,11.05
2023-02-11T05:11:21.492Z,10.63
2023-02-11T05:16:23.114Z,9.43
2023-02-11T05:21:25.135Z,11.68
2023-02-11T05:26:26.744Z,12.88
2023-02-11T05:31:28.275Z,8.73
2023-02-11T05:36:33.294Z,12.70
2023-02-11T05:41:34.908Z,14.32
2023-02-11T05:46:36.448Z,13.68
2023-02-11T05:51:38.138Z,13.57
2023-02-11T05:56:39.600Z,14.43
2023-02-11T06:01:41.340Z,14.07
2023-02-11T06:06:42.925Z,12.57
2023-02-11T06:11:44.341Z,13.70
2023-02-11T06:16:45.811Z,14.60
2023-02-11T06:21:47.266Z,14.88
2023-02-11T06:26:48.760Z,14.93
2023-02-11T06:31:50.381Z,14.27
2023-02-11T06:36:51.854Z,14.63
2023-02-11T06:41:53.282Z,14.95
2023-02-11T06:46:54.829Z,17.15
2023-02-11T06:51:56.281Z,12.02
2023-02-11T06:56:57.966Z,15.55
2023-02-11T07:01:59.486Z,16.27
2023-02-11T07:07:01.020Z,11.50
2023-02-11T07:12:02.504Z,11.13
2023-02-11T07:17:07.338Z,16.05
2023-02-11T07:22:08.769Z,15.95
2023-02-11T07:27:10.466Z,16.02
2023-02-11T07:32:11.982Z,15.25
2023-02-11T07:37:13.477Z,16.50
2023-02-11T07:42:14.947Z,18.15
2023-02-11T07:47:16.391Z,19.02
2023-02-11T07:52:18.047Z,16.10
2023-02-11T07:57:19.520Z,20.52
2023-02-11T08:02:21.001Z,19.02
2023-02-11T08:07:22.732Z,18.88
2023-02-11T08:12:24.178Z,19.27
2023-02-11T08:17:26.432Z,19.80
2023-02-11T08:22:28.029Z,19.45
2023-02-11T08:27:29.476Z,16.10
2023-02-11T08:32:31.079Z,18.67
2023-02-11T08:37:33.164Z,18.75
2023-02-11T08:42:34.759Z,17.55
2023-02-11T08:47:37.310Z,19.17
2023-02-11T08:52:38.773Z,17.88
2023-02-11T08:57:40.217Z,17.67
2023-02-11T09:02:41.941Z,18.25
2023-02-11T09:07:43.511Z,16.15
2023-02-11T09:12:44.958Z,11.95
2023-02-11T09:17:46.445Z,19.08
2023-02-11T09:22:48.398Z,18.45
2023-02-11T09:27:51.317Z,16.27
2023-02-11T09:32:52.963Z,24.05
2023-02-11T09:37:54.487Z,21.40
2023-02-11T09:43:11.865Z,20.02
2023-02-11T09:48:17.830Z,19.58
2023-02-11T09:53:24.242Z,12.33
2023-02-11T09:58:34.077Z,13.95
2023-02-11T10:03:41.517Z,10.40
2023-02-11T10:08:58.814Z,20.70
2023-02-11T10:14:29.688Z,21.83
2023-02-11T10:19:47.225Z,6.57
2023-02-11T10:24:53.564Z,19.35
2023-02-11T10:30:36.546Z,19.05
2023-02-11T10:35:38.591Z,18.58
2023-02-11T10:40:40.747Z,18.80
2023-02-11T10:45:43.772Z,20.23
2023-02-11T10:50:47.339Z,17.33
2023-02-11T10:55:58.620Z,19.35
2023-02-11T11:01:01.001Z,19.17
2023-02-11T11:06:06.982Z,17.25
2023-02-11T11:11:11.830Z,14.47
2023-02-11T11:16:13.406Z,18.02
2023-02-11T11:21:34.655Z,11.90
2023-02-11T11:26:46.848Z,17.33
2023-02-11T11:32:04.796Z,12.77
2023-02-11T11:37:33.058Z,15.93
2023-02-11T11:42:37.208Z,15.00
2023-02-11T11:48:00.486Z,14.07
2023-02-11T11:53:26.142Z,13.45
2023-02-11T11:58:29.087Z,15.25
2023-02-11T12:03:42.909Z,8.68
2023-02-11T12:08:52.069Z,10.35
2023-02-11T12:14:00.103Z,13.52
2023-02-11T12:19:22.307Z,10.00
2023-02-11T12:24:38.801Z,10.35
2023-02-11T12:30:15.684Z,13.20
2023-02-11T12:35:23.080Z,15.00
2023-02-11T12:40:50.590Z,9.65
2023-02-11T12:46:14.607Z,11.35
2023-02-11T12:51:32.114Z,7.05
2023-02-11T12:56:45.117Z,11.40
2023-02-11T13:01:49.655Z,9.27
2023-02-11T13:06:57.541Z,10.07
2023-02-11T13:12:23.474Z,4.57
2023-02-11T13:17:56.697Z,8.88
2023-02-11T13:23:19.143Z,11.73
2023-02-11T13:28:34.323Z,11.63
2023-02-11T13:33:43.031Z,11.90
2023-02-11T13:39:05.829Z,13.80
2023-02-11T13:44:10.071Z,10.93
2023-02-11T13:49:20.613Z,10.27
2023-02-11T13:54:31.099Z,11.95
2023-02-11T13:59:33.179Z,10.68
2023-02-11T14:04:53.211Z,9.40
2023-02-11T14:09:57.072Z,10.10
2023-02-11T14:15:25.192Z,9.02
2023-02-11T14:20:42.014Z,11.27
2023-02-11T14:31:00.014Z,9.32
2023-02-11T14:36:18.332Z,10.63
2023-02-11T14:41:24.263Z,9.90
2023-02-11T14:46:35.704Z,9.05
2023-02-11T14:51:40.663Z,11.05
2023-02-11T14:56:42.491Z,7.35
2023-02-11T15:01:48.763Z,8.27
2023-02-11T15:06:50.640Z,10.10
2023-02-11T15:11:52.786Z,8.02
2023-02-11T15:16:58.098Z,8.65
2023-02-11T15:21:59.702Z,9.75
2023-02-11T15:27:15.488Z,8.00
2023-02-11T15:32:19.796Z,8.15
2023-02-11T15:37:29.737Z,7.93
2023-02-11T15:42:40.992Z,7.35
2023-02-11T15:47:51.475Z,7.72
2023-02-11T15:52:55.279Z,7.20
2023-02-11T15:58:00.568Z,7.38
2023-02-11T16:03:02.285Z,7.25
2023-02-11T16:08:35.425Z,7.68
2023-02-11T16:13:47.254Z,5.47
2023-02-11T16:19:04.860Z,7.18
2023-02-11T16:24:15.798Z,7.50
2023-02-11T16:29:25.929Z,6.32
2023-02-11T16:34:28.439Z,6.57
2023-02-11T16:39:30.117Z,7.43
2023-02-11T16:44:35.617Z,6.85
2023-02-11T16:49:40.849Z,7.38
2023-02-11T16:54:42.514Z,5.75
2023-02-11T16:59:44.628Z,6.45
2023-02-11T17:04:46.819Z,6.00
2023-02-11T17:09:48.388Z,6.30
2023-02-11T17:14:50.900Z,6.20
2023-02-11T17:19:52.452Z,5.50
2023-02-11T17:24:56.264Z,7.45
2023-02-11T17:30:00.907Z,6.78
2023-02-11T17:35:02.482Z,8.65
2023-02-11T17:40:04.177Z,8.75
2023-02-11T17:45:06.489Z,7.78
2023-02-11T17:50:10.189Z,8.45
2023-02-11T17:55:13.026Z,9.95
2023-02-11T18:00:15.231Z,8.50
2023-02-11T18:05:16.733Z,9.20
2023-02-11T18:10:19.064Z,8.82
2023-02-11T18:15:22.539Z,13.90
2023-02-11T18:20:24.158Z,12.45
2023-02-11T18:25:25.719Z,9.07
2023-02-11T18:30:28.000Z,10.25
2023-02-11T18:35:29.709Z,7.38
2023-02-11T18:40:31.967Z,9.50
2023-02-11T18:45:33.596Z,13.98
2023-02-11T18:50:35.174Z,9.10
2023-02-11T18:55:41.197Z,8.38
2023-02-11T19:00:45.524Z,10.10
2023-02-11T19:05:51.488Z,11.88
2023-02-11T19:10:55.760Z,10.63
2023-02-11T19:15:58.283Z,11.00
2023-02-11T19:21:00.156Z,10.13
2023-02-11T19:26:04.456Z,9.13
2023-02-11T19:31:11.464Z,8.43
2023-02-11T19:36:16.485Z,9.43
2023-02-11T19:41:23.185Z,11.02
2023-02-11T19:51:33.801Z,11.40
2023-02-11T19:56:36.463Z,11.35
2023-02-11T20:01:39.772Z,11.35
2023-02-11T20:06:43.700Z,10.43
2023-02-11T20:11:45.743Z,12.25
2023-02-11T20:16:49.723Z,11.90
2023-02-11T20:21:53.788Z,11.98
2023-02-11T20:26:56.650Z,12.13
2023-02-11T20:31:58.320Z,11.27
2023-02-11T20:37:03.318Z,11.80
2023-02-11T20:42:09.546Z,11.70
2023-02-11T20:47:12.128Z,10.35
2023-02-11T20:52:13.620Z,25.02
2023-02-11T20:57:16.316Z,12.27
2023-02-11T21:02:19.151Z,11.45
2023-02-11T21:07:23.809Z,15.15
2023-02-11T21:12:25.294Z,11.32
2023-02-11T21:17:27.521Z,11.13
2023-02-11T21:22:36.289Z,11.82
2023-02-11T21:27:38.281Z,11.65
2023-02-11T21:32:39.756Z,11.02
2023-02-11T21:37:41.274Z,11.90
2023-02-11T21:42:42.963Z,11.23
2023-02-11T21:47:44.437Z,11.13
2023-02-11T21:52:47.099Z,11.55
2023-02-11T21:57:48.729Z,11.75
2023-02-11T22:02:50.542Z,11.40
2023-02-11T22:07:52.092Z,11.27
2023-02-11T22:12:53.621Z,10.50
2023-02-11T22:17:55.324Z,11.27
2023-02-11T22:22:59.763Z,9.60
2023-02-11T22:28:02.547Z,11.38
2023-02-11T22:33:08.721Z,10.90
2023-02-11T22:38:11.185Z,10.80
2023-02-11T22:43:13.846Z,11.63
2023-02-11T22:48:15.441Z,12.82
2023-02-11T22:53:20.279Z,10.57
2023-02-11T22:58:22.046Z,10.82
2023-02-11T23:03:23.482Z,10.32
2023-02-11T23:08:28.587Z,12.70
2023-02-11T23:13:30.073Z,13.02
2023-02-11T23:18:35.494Z,12.32
2023-02-11T23:23:37.054Z,12.70
2023-02-11T23:28:39.441Z,13.15
2023-02-11T23:33:40.848Z,13.95
2023-02-11T23:38:42.626Z,14.75
2023-02-11T23:43:51.170Z,13.88
2023-02-11T23:48:53.271Z,14.05
2023-02-11T23:53:56.233Z,14.98
2023-02-11T23:58:58.911Z,14.02
